Nebraska City, NE

11:32 PM CDT on June 28, 2017 (GMT -0500)
Nebraska City Municipal

Weather History for KAFK - September, 2012

Change the Weather History Date:

Friday, September 7, 2012

  Actual Average (KSDA) Record (KSDA)
Temperature  
Mean Temperature 66 °F -  
Max Temperature 73 °F 85 °F 98 °F (1990)
Min Temperature 56 °F 60 °F 39 °F (1956)
Growing Degree Days 16 (Base 50)    
Moisture  
Dew Point 57 °F    
Average Humidity 72    
Maximum Humidity 94    
Minimum Humidity 49    
Precipitation  
Precipitation 0.00 in - - ()
Sea Level Pressure  
Sea Level Pressure 29.94 in    
Wind  
Wind Speed 12 mph (NNW)    
Max Wind Speed 24 mph    
Max Gust Speed 32 mph    
Visibility 10 miles    
Events Rain    
Averages and records for this station are not official NWS values.
T = Trace of Precipitation, MM = Missing Value Source: NWS Daily Summary

Daily Weather History Graph

Daily Weather History Graph

Search for Another Location

Airport or City:

Trip Planner

Search our weather history database for the weather conditions in past years. The results will help you decide how hot, cold, wet, or windy it might be!

Date:

Astronomy

Sep. 07, 2012 Rise Set
Actual Time 6:56 AM CDT 7:44 PM CDT
Civil Twilight 6:29 AM CDT 8:12 PM CDT
Nautical Twilight 5:56 AM CDT 8:45 PM CDT
Astronomical Twilight 5:22 AM CDT 9:19 PM CDT
Moon 11:39 PM CDT (9/7) 1:51 PM CDT (9/7)
Length of Visible Light 13h 43m
Length of Day
12h 47m
Waning Gibbous, 58% of the Moon is Illuminated
Sep 7
Waning Gibbous
Sep 8
Last Quarter
Sep 15
New
Sep 22
First Quarter
Sep 29
Full

Hourly Weather History & Observations

Time (CDT) Temp. Dew Point Humidity Pressure Visibility Wind Dir Wind Speed Gust Speed Precip Events Conditions
12:15 AM 74.3 °F 65.8 °F 75% 29.80 in 10.0 mi South 9.2 mph - N/A   Clear
12:35 AM 73.9 °F 66.2 °F 77% 29.80 in 10.0 mi South 9.2 mph - N/A   Clear
12:55 AM 73.6 °F 66.2 °F 78% 29.79 in 10.0 mi South 9.2 mph - N/A   Clear
1:15 AM 73.0 °F 66.4 °F 80% 29.79 in 10.0 mi South 8.1 mph - N/A   Clear
1:35 AM 71.8 °F 66.2 °F 83% 29.79 in 10.0 mi South 6.9 mph - N/A   Clear
1:55 AM 70.0 °F 65.8 °F 87% 29.78 in 10.0 mi South 8.1 mph - N/A   Clear
2:15 AM 69.8 °F 66.0 °F 88% 29.78 in 10.0 mi SSW 6.9 mph - N/A   Clear
2:35 AM 69.6 °F 66.2 °F 89% 29.78 in 10.0 mi SW 8.1 mph - N/A   Clear
2:55 AM 69.1 °F 66.2 °F 91% 29.79 in 10.0 mi SW 8.1 mph - N/A   Clear
3:15 AM 68.4 °F 66.6 °F 94% 29.80 in 10.0 mi WSW 8.1 mph - N/A   Clear
3:35 AM 70.0 °F 65.8 °F 87% 29.79 in 10.0 mi SW 8.1 mph - N/A   Clear
3:55 AM 69.8 °F 65.3 °F 86% 29.78 in 10.0 mi SW 9.2 mph - N/A   Clear
4:15 AM 69.4 °F 64.9 °F 86% 29.78 in 10.0 mi WSW 9.2 mph - N/A   Clear
4:35 AM 70.7 °F 64.4 °F 80% 29.78 in 10.0 mi West 16.1 mph - N/A   Clear
4:55 AM 70.7 °F 63.1 °F 77% 29.79 in 10.0 mi West 12.7 mph - N/A   Clear
5:15 AM 69.8 °F 61.3 °F 74% 29.79 in 10.0 mi WNW 9.2 mph - N/A   Clear
5:35 AM 68.9 °F 59.9 °F 73% 29.80 in 10.0 mi NW 16.1 mph - N/A   Clear
5:55 AM 69.1 °F 58.3 °F 68% 29.81 in 10.0 mi NNW 19.6 mph 27.6 mph N/A   Clear
6:15 AM 68.7 °F 57.6 °F 67% 29.82 in 10.0 mi NNW 18.4 mph 32.2 mph N/A   Clear
6:35 AM 67.8 °F 57.4 °F 69% 29.85 in 10.0 mi North 15.0 mph 29.9 mph N/A   Clear
6:55 AM 66.9 °F 57.2 °F 71% 29.86 in 10.0 mi North 18.4 mph 26.5 mph N/A   Clear
7:15 AM 66.4 °F 57.2 °F 72% 29.87 in 10.0 mi North 19.6 mph 25.3 mph N/A   Clear
7:35 AM 66.4 °F 57.6 °F 73% 29.89 in 10.0 mi North 17.3 mph 27.6 mph N/A   Clear
7:55 AM 66.6 °F 58.6 °F 76% 29.89 in 10.0 mi North 16.1 mph 21.9 mph N/A   Clear
8:15 AM 67.1 °F 59.4 °F 76% 29.91 in 10.0 mi North 18.4 mph 25.3 mph N/A   Clear
8:35 AM 68.2 °F 60.3 °F 76% 29.91 in 10.0 mi North 16.1 mph 21.9 mph N/A   Clear
8:55 AM 67.8 °F 60.4 °F 77% 29.91 in 10.0 mi North 12.7 mph 23.0 mph N/A   Clear
9:15 AM 67.5 °F 60.3 °F 78% 29.90 in 10.0 mi North 15.0 mph - N/A   Clear
9:35 AM 70.0 °F 60.8 °F 73% 29.93 in 10.0 mi North 15.0 mph 21.9 mph N/A   Scattered Clouds
9:55 AM 69.1 °F 59.9 °F 72% 29.94 in 10.0 mi NNW 17.3 mph 23.0 mph N/A   Scattered Clouds
10:15 AM 69.4 °F 59.4 °F 70% 29.96 in 10.0 mi North 18.4 mph 23.0 mph N/A   Clear
10:35 AM 69.1 °F 58.3 °F 68% 29.98 in 10.0 mi North 21.9 mph 26.5 mph N/A   Scattered Clouds
10:55 AM 68.4 °F 57.7 °F 69% 30.01 in 10.0 mi North 24.2 mph 31.1 mph N/A   Mostly Cloudy
11:15 AM 68.0 °F 56.5 °F 67% 29.98 in 10.0 mi North 24.2 mph 29.9 mph N/A   Scattered Clouds
11:35 AM 67.3 °F 56.3 °F 68% 29.96 in 10.0 mi NNE 19.6 mph 26.5 mph N/A   Scattered Clouds
11:55 AM 67.5 °F 57.2 °F 70% 29.99 in 10.0 mi North 18.4 mph 25.3 mph N/A   Light Drizzle
12:15 PM 66.6 °F 56.5 °F 70% 30.03 in 10.0 mi North 8.1 mph - N/A   Mostly Cloudy
12:35 PM 65.1 °F 58.8 °F 80% 29.98 in 10.0 mi North 13.8 mph 19.6 mph N/A Rain Rain
12:55 PM 66.2 °F 57.9 °F 75% 29.99 in 10.0 mi North 16.1 mph 20.7 mph N/A   Scattered Clouds
1:15 PM 65.5 °F 56.3 °F 72% 30.02 in 10.0 mi North 11.5 mph 19.6 mph N/A   Clear
1:35 PM 65.3 °F 56.3 °F 73% 30.03 in 10.0 mi North 9.2 mph - N/A   Mostly Cloudy
1:55 PM 65.7 °F 55.9 °F 71% 30.04 in 10.0 mi North 9.2 mph 17.3 mph N/A   Overcast
2:15 PM 63.9 °F 57.2 °F 79% 30.03 in 10.0 mi North 11.5 mph 18.4 mph N/A Rain Light Rain
2:35 PM 64.0 °F 57.6 °F 79% 30.04 in 10.0 mi North 13.8 mph - N/A   Scattered Clouds
2:55 PM 64.6 °F 57.0 °F 76% 30.04 in 10.0 mi North 13.8 mph - N/A   Clear
3:15 PM 65.1 °F 56.7 °F 74% 30.05 in 10.0 mi NNW 13.8 mph - N/A   Clear
3:35 PM 65.5 °F 56.7 °F 73% 30.04 in 10.0 mi North 18.4 mph - N/A   Clear
3:55 PM 65.1 °F 56.8 °F 75% 30.04 in 10.0 mi North 17.3 mph 21.9 mph N/A   Clear
4:15 PM 66.9 °F 56.8 °F 70% 30.04 in 10.0 mi North 16.1 mph 21.9 mph N/A   Scattered Clouds
4:55 PM 68.9 °F 54.0 °F 59% 30.03 in 10.0 mi North 17.3 mph 24.2 mph N/A   Scattered Clouds
5:15 PM 68.2 °F 52.5 °F 57% 30.03 in 10.0 mi NNE 18.4 mph 25.3 mph N/A   Clear
5:35 PM 69.3 °F 53.8 °F 58% 30.02 in 10.0 mi NNE 12.7 mph - N/A   Clear
5:55 PM 69.8 °F 52.7 °F 54% 30.02 in 10.0 mi North 13.8 mph - N/A   Clear
6:15 PM 70.0 °F 52.2 °F 53% 30.02 in 10.0 mi North 11.5 mph - N/A   Clear
6:35 PM 69.8 °F 49.6 °F 49% 30.02 in 10.0 mi North 11.5 mph 21.9 mph N/A   Clear
6:55 PM 69.3 °F 49.6 °F 50% 30.02 in 10.0 mi North 17.3 mph 21.9 mph N/A   Clear
7:15 PM 68.2 °F 50.2 °F 53% 30.02 in 10.0 mi North 8.1 mph - N/A   Clear
7:35 PM 65.8 °F 50.5 °F 58% 30.02 in 10.0 mi North 6.9 mph - N/A   Clear
7:55 PM 63.7 °F 50.4 °F 62% 30.03 in 10.0 mi NNW 6.9 mph - N/A   Clear
8:15 PM 63.0 °F 50.0 °F 63% 30.03 in 10.0 mi NNW 6.9 mph - N/A   Clear
8:35 PM 62.8 °F 49.6 °F 62% 30.04 in 10.0 mi NNW 5.8 mph - N/A   Clear
8:55 PM 61.5 °F 49.3 °F 64% 30.05 in 10.0 mi NNW 6.9 mph - N/A   Clear
9:15 PM 60.1 °F 49.1 °F 67% 30.07 in 10.0 mi NNW 9.2 mph - N/A   Clear
9:35 PM 60.3 °F 48.6 °F 65% 30.08 in 10.0 mi NNW 9.2 mph - N/A   Clear
9:55 PM 59.9 °F 48.2 °F 65% 30.08 in 10.0 mi NW 9.2 mph - N/A   Clear
10:55 PM 58.8 °F 46.4 °F 63% 30.10 in 10.0 mi North 8.1 mph - N/A   Clear
11:35 PM 57.6 °F 46.2 °F 66% 30.11 in 10.0 mi North 8.1 mph - N/A   Clear
11:55 PM 56.8 °F 46.2 °F 68% 30.12 in 10.0 mi North 9.2 mph - N/A   Clear